createdAt,value
2018-02-17T00:00:39.647Z,4.00
2018-02-17T00:03:13.508Z,3.90
2018-02-17T00:05:47.310Z,3.90
2018-02-17T00:08:21.106Z,3.90
2018-02-17T00:10:55.662Z,3.80
2018-02-17T00:13:29.313Z,3.80
2018-02-17T00:16:03.020Z,3.80
2018-02-17T00:18:38.282Z,3.70
2018-02-17T00:21:12.233Z,3.70
2018-02-17T00:23:45.892Z,3.60
2018-02-17T00:26:19.594Z,3.60
2018-02-17T00:28:53.128Z,3.50
2018-02-17T00:31:26.791Z,3.50
2018-02-17T00:34:00.513Z,3.40
2018-02-17T00:36:34.967Z,3.40
2018-02-17T00:39:08.656Z,3.30
2018-02-17T00:41:42.327Z,3.20
2018-02-17T00:44:15.973Z,3.20
2018-02-17T00:46:49.614Z,3.20
2018-02-17T00:49:24.195Z,3.20
2018-02-17T00:51:58.915Z,3.10
2018-02-17T00:54:32.509Z,3.10
2018-02-17T00:57:06.203Z,3.10
2018-02-17T00:59:39.899Z,3.00
2018-02-17T01:02:13.621Z,3.00
2018-02-17T01:04:48.948Z,2.90
2018-02-17T01:07:22.787Z,2.80
2018-02-17T01:09:56.499Z,2.80
2018-02-17T01:12:31.057Z,2.80
2018-02-17T01:15:05.028Z,2.80
2018-02-17T01:17:38.701Z,2.80
2018-02-17T01:20:13.357Z,2.80
2018-02-17T01:22:47.237Z,2.80
2018-02-17T01:25:22.516Z,2.70
2018-02-17T01:27:56.646Z,2.70
2018-02-17T01:30:31.231Z,2.70
2018-02-17T01:33:05.045Z,2.70
2018-02-17T01:35:38.621Z,2.70
2018-02-17T01:38:13.061Z,2.70
2018-02-17T01:40:46.809Z,2.70
2018-02-17T01:43:20.618Z,2.70
2018-02-17T01:45:54.325Z,2.70
2018-02-17T01:48:29.544Z,2.60
2018-02-17T01:51:03.524Z,2.60
2018-02-17T01:53:37.990Z,2.50
2018-02-17T01:56:11.896Z,2.50
2018-02-17T01:58:46.299Z,2.60
2018-02-17T02:01:20.187Z,2.60
2018-02-17T02:03:54.681Z,2.60
2018-02-17T02:06:28.339Z,2.60
2018-02-17T02:09:02.072Z,2.60
2018-02-17T02:11:35.721Z,2.70
2018-02-17T02:14:09.543Z,2.80
2018-02-17T02:16:43.449Z,2.80
2018-02-17T02:19:23.626Z,2.90
2018-02-17T02:21:58.682Z,2.80
2018-02-17T02:24:32.653Z,2.70
2018-02-17T02:27:06.283Z,2.70
2018-02-17T02:29:40.085Z,2.70
2018-02-17T02:32:14.087Z,2.60
2018-02-17T02:34:48.507Z,2.50
2018-02-17T02:37:22.630Z,2.50
2018-02-17T02:39:57.126Z,2.60
2018-02-17T02:42:30.966Z,2.60
2018-02-17T02:45:04.668Z,2.60
2018-02-17T02:47:38.472Z,2.60
2018-02-17T02:50:13.047Z,2.60
2018-02-17T02:52:46.930Z,2.60
2018-02-17T02:55:21.476Z,2.60
2018-02-17T02:57:55.051Z,2.60
2018-02-17T03:00:28.973Z,2.60
2018-02-17T03:03:02.497Z,2.70
2018-02-17T03:05:36.924Z,2.70
2018-02-17T03:08:11.472Z,2.70
2018-02-17T03:10:45.559Z,2.70
2018-02-17T03:13:19.334Z,2.70
2018-02-17T03:15:53.892Z,2.80
2018-02-17T03:18:27.709Z,2.80
2018-02-17T03:21:02.565Z,2.70
2018-02-17T03:23:37.127Z,2.60
2018-02-17T03:26:10.836Z,2.70
2018-02-17T03:28:45.183Z,2.70
2018-02-17T03:31:19.158Z,2.70
2018-02-17T03:33:53.018Z,2.70
2018-02-17T03:36:26.875Z,2.70
2018-02-17T03:39:02.044Z,2.60
2018-02-17T03:41:36.820Z,2.60
2018-02-17T03:44:11.424Z,2.60
2018-02-17T03:46:45.230Z,2.60
2018-02-17T03:49:18.886Z,2.60
2018-02-17T03:51:52.504Z,2.60
2018-02-17T03:54:26.996Z,2.50
2018-02-17T03:57:00.860Z,2.50
2018-02-17T03:59:34.712Z,2.50
2018-02-17T04:02:08.426Z,2.50
2018-02-17T04:04:42.179Z,2.50
2018-02-17T04:07:17.538Z,2.40
2018-02-17T04:09:51.416Z,2.40
2018-02-17T04:12:25.814Z,2.20
2018-02-17T04:14:59.999Z,2.20
2018-02-17T04:17:35.066Z,2.30
2018-02-17T04:20:09.143Z,2.20
2018-02-17T04:22:43.595Z,2.30
2018-02-17T04:25:17.245Z,2.30
2018-02-17T04:27:51.681Z,2.30
2018-02-17T04:30:25.321Z,2.30
2018-02-17T04:32:58.902Z,2.30
2018-02-17T04:35:33.229Z,2.20
2018-02-17T04:38:08.075Z,2.20
2018-02-17T04:40:47.302Z,2.20
2018-02-17T04:43:36.308Z,2.20
2018-02-17T04:46:16.766Z,2.20
2018-02-17T04:48:54.743Z,2.20
2018-02-17T04:54:41.112Z,2.10
2018-02-17T04:57:32.132Z,2.00
2018-02-17T05:00:06.702Z,1.90
2018-02-17T05:02:41.007Z,2.00
2018-02-17T05:08:36.712Z,2.00
2018-02-17T05:11:11.441Z,2.00
2018-02-17T05:13:45.237Z,2.00
2018-02-17T05:19:29.247Z,2.00
2018-02-17T05:22:14.323Z,2.00
2018-02-17T05:27:52.171Z,2.00
2018-02-17T05:30:26.955Z,1.90
2018-02-17T05:33:01.659Z,1.90
2018-02-17T05:35:38.417Z,1.90
2018-02-17T05:38:12.512Z,1.80
2018-02-17T05:41:03.101Z,1.80
2018-02-17T05:43:37.443Z,1.70
2018-02-17T05:46:16.732Z,1.70
2018-02-17T05:48:51.242Z,2.20
2018-02-17T05:51:27.214Z,1.70
2018-02-17T05:54:01.423Z,1.70
2018-02-17T05:56:35.827Z,1.80
2018-02-17T05:59:09.817Z,1.80
2018-02-17T06:01:43.656Z,1.80
2018-02-17T06:04:18.326Z,1.80
2018-02-17T06:06:52.932Z,1.70
2018-02-17T06:09:26.893Z,1.70
2018-02-17T06:12:01.368Z,1.70
2018-02-17T06:14:35.312Z,1.70
2018-02-17T06:17:09.163Z,1.70
2018-02-17T06:19:43.030Z,1.70
2018-02-17T06:22:16.753Z,1.70
2018-02-17T06:24:50.494Z,1.70
2018-02-17T06:27:24.746Z,1.70
2018-02-17T06:29:58.671Z,1.70
2018-02-17T06:32:32.325Z,1.70
2018-02-17T06:35:06.207Z,1.70
2018-02-17T06:37:40.022Z,1.70
2018-02-17T06:40:13.968Z,1.70
2018-02-17T06:42:48.491Z,1.70
2018-02-17T06:45:22.239Z,1.70
2018-02-17T06:47:56.089Z,1.70
2018-02-17T06:50:30.063Z,1.70
2018-02-17T06:53:03.883Z,1.80
2018-02-17T06:55:38.446Z,1.90
2018-02-17T06:58:12.535Z,1.90
2018-02-17T07:00:46.343Z,1.90
2018-02-17T07:03:19.911Z,2.00
2018-02-17T07:05:54.454Z,2.10
2018-02-17T07:08:28.344Z,2.10
2018-02-17T07:11:02.723Z,2.20
2018-02-17T07:13:36.975Z,2.20
2018-02-17T07:16:12.037Z,2.30
2018-02-17T07:18:46.355Z,2.40
2018-02-17T07:21:20.805Z,2.50
2018-02-17T07:23:54.839Z,2.50
2018-02-17T07:26:28.475Z,2.60
2018-02-17T07:29:02.225Z,2.70
2018-02-17T07:31:36.079Z,2.90
2018-02-17T07:34:09.896Z,3.00
2018-02-17T07:36:43.629Z,3.30
2018-02-17T07:39:17.505Z,3.50
2018-02-17T07:41:51.179Z,3.70
2018-02-17T07:44:24.892Z,3.70
2018-02-17T07:46:58.663Z,3.80
2018-02-17T07:49:32.495Z,4.00
2018-02-17T07:52:06.568Z,4.20
2018-02-17T07:54:40.378Z,4.30
2018-02-17T07:57:14.143Z,4.40
2018-02-17T07:59:48.708Z,4.50
2018-02-17T08:02:23.170Z,4.50
2018-02-17T08:04:57.384Z,4.40
2018-02-17T08:07:31.820Z,4.40
2018-02-17T08:10:06.681Z,4.40
2018-02-17T08:12:40.868Z,4.40
2018-02-17T08:15:14.638Z,4.50
2018-02-17T08:17:49.288Z,4.60
2018-02-17T08:20:23.326Z,4.60
2018-02-17T08:22:57.068Z,4.70
2018-02-17T08:25:31.580Z,5.00
2018-02-17T08:28:05.758Z,5.00
2018-02-17T08:30:40.293Z,5.30
2018-02-17T08:33:14.296Z,5.20
2018-02-17T08:35:47.979Z,5.40
2018-02-17T08:38:21.890Z,5.60
2018-02-17T08:40:55.829Z,5.60
2018-02-17T08:43:30.410Z,6.10
2018-02-17T08:46:04.324Z,6.10
2018-02-17T08:48:38.242Z,6.40
2018-02-17T08:51:12.860Z,6.90
2018-02-17T08:53:46.836Z,6.90
2018-02-17T08:56:20.545Z,7.10
2018-02-17T08:58:54.385Z,7.30
2018-02-17T09:01:28.583Z,7.30
2018-02-17T09:04:03.251Z,7.50
2018-02-17T09:06:38.385Z,7.60
2018-02-17T09:09:12.463Z,7.50
2018-02-17T09:11:46.958Z,7.60
2018-02-17T09:14:21.081Z,7.70
2018-02-17T09:16:54.906Z,7.80
2018-02-17T09:19:28.702Z,7.80
2018-02-17T09:22:02.496Z,7.80
2018-02-17T09:24:36.343Z,7.90
2018-02-17T09:27:10.771Z,8.30
2018-02-17T09:29:45.607Z,8.30
2018-02-17T09:32:20.529Z,8.50
2018-02-17T09:34:54.740Z,8.50
2018-02-17T09:37:29.052Z,8.70
2018-02-17T09:40:03.133Z,8.70
2018-02-17T09:42:37.156Z,8.90
2018-02-17T09:45:11.456Z,9.10
2018-02-17T09:47:46.144Z,9.30
2018-02-17T09:50:20.337Z,9.30
2018-02-17T09:52:54.128Z,9.40
2018-02-17T09:55:27.807Z,9.60
2018-02-17T09:58:01.450Z,9.70
2018-02-17T10:00:35.011Z,9.60
2018-02-17T10:03:08.997Z,9.60
2018-02-17T10:05:43.020Z,9.70
2018-02-17T10:08:16.801Z,9.90
2018-02-17T10:10:50.592Z,9.90
2018-02-17T10:13:24.446Z,9.90
2018-02-17T10:15:58.327Z,9.90
2018-02-17T10:18:32.119Z,10.00
2018-02-17T10:21:05.934Z,10.10
2018-02-17T10:23:39.869Z,10.40
2018-02-17T10:26:13.925Z,10.50
2018-02-17T10:28:47.436Z,10.50
2018-02-17T10:31:21.253Z,10.60
2018-02-17T10:33:55.093Z,10.70
2018-02-17T10:36:28.908Z,10.90
2018-02-17T10:39:03.463Z,11.10
2018-02-17T10:41:37.527Z,11.00
2018-02-17T10:44:11.344Z,11.00
2018-02-17T10:46:45.323Z,10.90
2018-02-17T10:49:19.132Z,10.60
2018-02-17T10:51:52.943Z,10.60
2018-02-17T10:54:26.639Z,10.70
2018-02-17T10:57:01.063Z,10.50
2018-02-17T10:59:35.019Z,10.50
2018-02-17T11:02:09.594Z,10.50
2018-02-17T11:04:43.468Z,10.40
2018-02-17T11:07:17.908Z,10.70
2018-02-17T11:09:51.834Z,10.70
2018-02-17T11:12:25.619Z,10.70
2018-02-17T11:14:59.512Z,10.60
2018-02-17T11:17:34.148Z,10.60
2018-02-17T11:20:09.069Z,10.90
2018-02-17T11:22:43.231Z,10.90
2018-02-17T11:25:17.144Z,11.00
2018-02-17T11:27:51.199Z,11.00
2018-02-17T11:30:24.904Z,10.90
2018-02-17T11:32:58.747Z,10.80
2018-02-17T11:35:32.867Z,10.60
2018-02-17T11:38:07.759Z,10.30
2018-02-17T11:40:42.759Z,10.30
2018-02-17T11:43:16.616Z,10.30
2018-02-17T11:45:51.235Z,10.20
2018-02-17T11:48:25.502Z,10.20
2018-02-17T11:50:59.529Z,10.20
2018-02-17T11:53:34.096Z,10.10
2018-02-17T11:56:08.052Z,10.10
2018-02-17T11:58:42.732Z,10.20
2018-02-17T12:01:16.997Z,10.20
2018-02-17T12:03:50.824Z,10.20
2018-02-17T12:06:24.596Z,10.30
2018-02-17T12:08:58.516Z,10.40
2018-02-17T12:11:32.443Z,10.30
2018-02-17T12:14:06.185Z,10.30
2018-02-17T12:16:40.710Z,9.90
2018-02-17T12:19:14.825Z,10.00
2018-02-17T12:21:48.565Z,9.90
2018-02-17T12:24:22.259Z,10.10
2018-02-17T12:26:55.927Z,10.30
2018-02-17T12:29:29.812Z,10.50
2018-02-17T12:32:04.325Z,10.60
2018-02-17T12:34:38.090Z,10.50
2018-02-17T12:37:11.932Z,10.60
2018-02-17T12:39:45.652Z,10.50
2018-02-17T12:42:19.558Z,10.60
2018-02-17T12:44:53.452Z,10.60
2018-02-17T12:47:27.265Z,10.50
2018-02-17T12:50:02.010Z,10.40
2018-02-17T12:52:36.200Z,10.40
2018-02-17T12:55:10.117Z,10.40
2018-02-17T12:57:43.824Z,10.30
2018-02-17T13:00:17.544Z,10.20
2018-02-17T13:02:51.579Z,10.00
2018-02-17T13:05:25.150Z,9.80
2018-02-17T13:07:59.008Z,9.80
2018-02-17T13:10:33.019Z,9.70
2018-02-17T13:13:07.786Z,9.60
2018-02-17T13:15:42.641Z,9.60
2018-02-17T13:18:17.451Z,9.40
2018-02-17T13:20:51.499Z,9.40
2018-02-17T13:23:25.413Z,9.50
2018-02-17T13:25:59.187Z,9.50
2018-02-17T13:28:32.889Z,9.50
2018-02-17T13:31:07.428Z,9.50
2018-02-17T13:33:41.437Z,9.50
2018-02-17T13:36:15.923Z,9.70
2018-02-17T13:38:50.091Z,9.70
2018-02-17T13:41:24.053Z,9.80
2018-02-17T13:43:58.510Z,9.60
2018-02-17T13:46:32.392Z,9.60
2018-02-17T13:49:06.905Z,9.20
2018-02-17T13:51:40.951Z,9.20
2018-02-17T13:54:14.807Z,9.00
2018-02-17T13:56:48.544Z,8.90
2018-02-17T13:59:22.544Z,8.90
2018-02-17T14:01:57.152Z,8.90
2018-02-17T14:04:32.184Z,8.90
2018-02-17T14:07:07.042Z,8.90
2018-02-17T14:09:41.264Z,8.90
2018-02-17T14:12:14.944Z,8.90
2018-02-17T14:14:48.786Z,8.90
2018-02-17T14:17:23.388Z,8.70
2018-02-17T14:19:57.652Z,8.70
2018-02-17T14:22:31.565Z,8.70
2018-02-17T14:25:05.804Z,8.60
2018-02-17T14:27:40.269Z,8.50
2018-02-17T14:30:14.276Z,8.40
2018-02-17T14:32:48.036Z,8.40
2018-02-17T14:35:21.808Z,8.30
2018-02-17T14:37:56.367Z,8.20
2018-02-17T14:40:30.466Z,8.20
2018-02-17T14:43:04.179Z,8.20
2018-02-17T14:45:37.833Z,8.30
2018-02-17T14:48:11.689Z,8.30
2018-02-17T14:50:46.137Z,8.30
2018-02-17T14:53:20.179Z,8.30
2018-02-17T14:55:54.748Z,8.30
2018-02-17T14:58:29.574Z,8.30
2018-02-17T15:01:03.630Z,8.30
2018-02-17T15:03:37.405Z,8.30
2018-02-17T15:06:11.077Z,8.30
2018-02-17T15:08:45.719Z,8.40
2018-02-17T15:11:19.885Z,8.40
2018-02-17T15:13:53.726Z,8.50
2018-02-17T15:16:28.476Z,8.30
2018-02-17T15:19:03.621Z,8.20
2018-02-17T15:21:37.749Z,8.20
2018-02-17T15:24:11.769Z,8.10
2018-02-17T15:26:46.353Z,7.90
2018-02-17T15:29:21.321Z,7.80
2018-02-17T15:31:55.435Z,7.80
2018-02-17T15:34:29.519Z,7.70
2018-02-17T15:37:03.253Z,7.60
2018-02-17T15:39:36.985Z,7.60
2018-02-17T15:42:10.824Z,7.50
2018-02-17T15:44:44.660Z,7.50
2018-02-17T15:47:18.490Z,7.50
2018-02-17T15:49:52.266Z,7.50
2018-02-17T15:52:25.945Z,7.40
2018-02-17T15:54:59.635Z,7.30
2018-02-17T15:57:34.120Z,7.10
2018-02-17T16:00:07.827Z,7.10
2018-02-17T16:02:42.352Z,7.00
2018-02-17T16:05:16.313Z,6.90
2018-02-17T16:07:50.153Z,6.90
2018-02-17T16:10:23.748Z,6.90
2018-02-17T16:12:57.462Z,6.90
2018-02-17T16:15:31.158Z,6.80
2018-02-17T16:18:04.820Z,6.80
2018-02-17T16:20:38.635Z,6.80
2018-02-17T16:23:12.816Z,6.70
2018-02-17T16:25:47.392Z,6.70
2018-02-17T16:28:21.313Z,6.70
2018-02-17T16:30:55.143Z,6.60
2018-02-17T16:33:29.847Z,6.50
2018-02-17T16:36:04.765Z,6.50
2018-02-17T16:38:39.535Z,6.50
2018-02-17T16:41:13.479Z,6.40
2018-02-17T16:43:47.311Z,6.40
2018-02-17T16:46:21.103Z,6.40
2018-02-17T16:48:55.029Z,6.40
2018-02-17T16:51:28.860Z,6.30
2018-02-17T16:54:03.538Z,6.30
2018-02-17T16:56:38.568Z,6.30
2018-02-17T16:59:12.431Z,6.30
2018-02-17T17:01:46.561Z,6.30
2018-02-17T17:04:20.847Z,6.30
2018-02-17T17:06:55.232Z,6.20
2018-02-17T17:09:29.898Z,6.30
2018-02-17T17:12:03.915Z,6.30
2018-02-17T17:14:37.822Z,6.30
2018-02-17T17:17:11.641Z,6.30
2018-02-17T17:19:45.536Z,6.30
2018-02-17T17:22:19.453Z,6.40
2018-02-17T17:24:54.136Z,6.40
2018-02-17T17:27:28.359Z,6.40
2018-02-17T17:30:02.203Z,6.50
2018-02-17T17:32:35.884Z,6.50
2018-02-17T17:35:10.460Z,6.50
2018-02-17T17:37:45.223Z,6.60
2018-02-17T17:40:19.402Z,6.50
2018-02-17T17:42:53.959Z,6.60
2018-02-17T17:45:29.098Z,6.60
2018-02-17T17:48:03.356Z,6.60
2018-02-17T17:50:37.108Z,6.60
2018-02-17T17:53:11.809Z,6.70
2018-02-17T17:55:45.870Z,6.70
2018-02-17T17:58:19.788Z,6.70
2018-02-17T18:00:54.285Z,6.70
2018-02-17T18:03:28.386Z,6.70
2018-02-17T18:06:02.140Z,6.70
2018-02-17T18:08:35.731Z,6.70
2018-02-17T18:11:09.522Z,6.70
2018-02-17T18:13:43.695Z,6.70
2018-02-17T18:16:18.304Z,6.70
2018-02-17T18:18:52.085Z,6.70
2018-02-17T18:21:25.762Z,6.70
2018-02-17T18:24:00.353Z,6.60
2018-02-17T18:26:34.569Z,6.60
2018-02-17T18:29:08.648Z,6.60
2018-02-17T18:31:43.306Z,6.50
2018-02-17T18:34:17.362Z,6.50
2018-02-17T18:36:51.159Z,6.50
2018-02-17T18:39:25.024Z,6.50
2018-02-17T18:41:58.676Z,6.50
2018-02-17T18:44:32.554Z,6.50
2018-02-17T18:47:07.013Z,6.50
2018-02-17T18:49:41.503Z,6.50
2018-02-17T18:52:15.422Z,6.40
2018-02-17T18:54:49.044Z,6.40
2018-02-17T18:57:22.817Z,6.40
2018-02-17T18:59:56.570Z,6.40
2018-02-17T19:02:30.231Z,6.30
2018-02-17T19:05:04.079Z,6.30
2018-02-17T19:07:39.039Z,6.30
2018-02-17T19:10:12.615Z,6.30
2018-02-17T19:12:47.164Z,6.30
2018-02-17T19:15:21.363Z,6.20
2018-02-17T20:01:43.446Z,5.70
2018-02-17T20:04:17.781Z,5.60
2018-02-17T20:06:51.761Z,5.60
2018-02-17T20:09:25.788Z,5.60
2018-02-17T20:11:59.988Z,5.60
2018-02-17T20:14:34.512Z,5.70
2018-02-17T20:17:08.537Z,5.70
2018-02-17T20:19:42.404Z,5.70
2018-02-17T20:22:16.235Z,5.70
2018-02-17T20:24:49.875Z,5.70
2018-02-17T20:27:23.649Z,5.70
2018-02-17T20:29:57.195Z,5.60
2018-02-17T20:32:30.836Z,5.60
2018-02-17T20:35:04.749Z,5.60
2018-02-17T20:37:38.655Z,5.60
2018-02-17T20:40:13.084Z,5.50
2018-02-17T20:42:47.112Z,5.50
2018-02-17T20:45:21.600Z,5.40
2018-02-17T20:47:55.651Z,5.40
2018-02-17T20:50:29.325Z,5.30
2018-02-17T20:53:03.131Z,5.30
2018-02-17T20:55:36.869Z,5.30
2018-02-17T20:58:11.472Z,5.30
2018-02-17T21:00:45.348Z,5.30
2018-02-17T21:03:19.872Z,5.30
2018-02-17T21:05:53.784Z,5.30
2018-02-17T21:08:27.621Z,5.20
2018-02-17T21:11:01.502Z,5.10
2018-02-17T21:13:36.201Z,5.10
2018-02-17T21:16:10.239Z,5.10
2018-02-17T21:18:43.891Z,5.20
2018-02-17T21:21:17.591Z,5.10
2018-02-17T21:23:52.045Z,5.10
2018-02-17T21:26:26.804Z,5.20
2018-02-17T21:29:01.420Z,5.20
2018-02-17T21:31:35.569Z,5.20
2018-02-17T21:34:10.731Z,5.20
2018-02-17T21:39:25.377Z,5.20
2018-02-17T21:42:00.072Z,5.30
2018-02-17T21:44:34.028Z,5.20
2018-02-17T21:47:07.780Z,5.30
2018-02-17T21:49:41.453Z,5.30
2018-02-17T21:52:15.049Z,5.30
2018-02-17T21:54:48.844Z,5.30
2018-02-17T21:57:22.432Z,5.30
2018-02-17T21:59:56.130Z,5.30
2018-02-17T22:02:29.824Z,5.40
2018-02-17T22:05:03.523Z,5.40
2018-02-17T22:07:37.172Z,5.40
2018-02-17T22:10:11.628Z,5.40
2018-02-17T22:12:45.387Z,5.40
2018-02-17T22:15:19.056Z,5.40
2018-02-17T22:17:53.797Z,5.40
2018-02-17T22:20:27.399Z,5.40
2018-02-17T22:23:02.016Z,5.30
2018-02-17T22:25:35.794Z,5.30
2018-02-17T22:28:09.412Z,5.30
2018-02-17T22:30:43.192Z,5.40
2018-02-17T22:33:16.829Z,5.30
2018-02-17T22:35:50.618Z,5.30
2018-02-17T22:38:24.509Z,5.30
2018-02-17T22:40:58.148Z,7.90
2018-02-17T22:43:31.908Z,5.20
2018-02-17T22:46:06.419Z,5.10
2018-02-17T22:48:40.164Z,5.10
2018-02-17T22:51:14.027Z,5.10
2018-02-17T22:53:47.784Z,5.10
2018-02-17T22:56:21.599Z,5.10
2018-02-17T22:58:55.241Z,5.00
2018-02-17T23:01:28.984Z,5.00
2018-02-17T23:04:02.680Z,5.00
2018-02-17T23:06:36.417Z,5.00
2018-02-17T23:09:10.085Z,4.90
2018-02-17T23:11:44.499Z,4.90
2018-02-17T23:14:19.112Z,4.80
2018-02-17T23:16:53.053Z,4.80
2018-02-17T23:19:26.812Z,4.80
2018-02-17T23:22:00.592Z,4.70
2018-02-17T23:24:34.427Z,4.70
2018-02-17T23:27:08.192Z,4.70
2018-02-17T23:29:41.839Z,4.70
2018-02-17T23:32:16.264Z,4.60
2018-02-17T23:34:50.128Z,4.60
2018-02-17T23:37:24.123Z,4.50
2018-02-17T23:39:58.048Z,4.50
2018-02-17T23:42:32.643Z,4.40
2018-02-17T23:45:06.728Z,4.40
2018-02-17T23:47:40.498Z,4.40
2018-02-17T23:50:14.283Z,4.40
2018-02-17T23:52:47.927Z,4.40
2018-02-17T23:55:21.739Z,4.40
2018-02-17T23:57:55.562Z,4.30
